Time;durP1;ratioP1;P1;durP2;ratioP2;P2;SDS_P1;SDS_P2;PMS_P1;PMS_P2;Temp;Humidity;BMP_temperature;BMP_pressure;BME280_temperature;BME280_humidity;BME280_pressure;Samples;Min_cycle;Max_cycle;Signal;HPM_P1;HPM_P2
2021/05/02 00:01:43;;;;;;;23.25;15.63;;;7.80;82.50;;;;;;5087848;28;20040;-69
2021/05/02 00:04:09;;;;;;;24.95;15.60;;;7.80;82.60;;;;;;5085832;28;20056;-69
2021/05/02 00:06:35;;;;;;;27.55;16.45;;;7.70;82.60;;;;;;5067627;28;20059;-69
2021/05/02 00:09:01;;;;;;;24.13;16.58;;;7.70;82.80;;;;;;5083337;28;20101;-71
2021/05/02 00:11:26;;;;;;;24.35;16.10;;;7.70;82.80;;;;;;5089693;28;20032;-68
2021/05/02 00:13:52;;;;;;;25.58;16.25;;;7.70;82.90;;;;;;5069813;28;20499;-68
2021/05/02 00:16:18;;;;;;;24.67;15.82;;;7.70;82.80;;;;;;5088597;28;20028;-68
2021/05/02 00:18:46;;;;;;;25.40;16.05;;;7.70;82.70;;;;;;5088833;28;20024;-68
2021/05/02 00:21:12;;;;;;;23.90;15.32;;;7.60;82.70;;;;;;5089238;28;20372;-69
2021/05/02 00:23:40;;;;;;;26.98;16.30;;;7.60;82.90;;;;;;5088888;28;20043;-68
2021/05/02 00:26:07;;;;;;;24.88;15.40;;;7.60;83.00;;;;;;5086823;28;20618;-68
2021/05/02 00:28:34;;;;;;;24.05;15.43;;;7.60;83.00;;;;;;5091118;28;20024;-68
2021/05/02 00:31:08;;;;;;;21.77;15.32;;;7.60;83.00;;;;;;5089795;28;20020;-68
2021/05/02 00:33:35;;;;;;;23.63;16.20;;;7.60;83.20;;;;;;5085963;28;20024;-69
2021/05/02 00:36:04;;;;;;;23.90;15.05;;;7.60;83.10;;;;;;5086706;28;20020;-68
2021/05/02 00:38:30;;;;;;;24.05;14.88;;;7.60;83.10;;;;;;5085016;28;20391;-68
2021/05/02 00:41:03;;;;;;;23.85;15.35;;;7.60;82.90;;;;;;5087910;28;20024;-68
2021/05/02 00:43:38;;;;;;;22.25;14.80;;;7.50;83.20;;;;;;5088414;28;20016;-68
2021/05/02 00:46:20;;;;;;;22.88;14.57;;;7.50;83.50;;;;;;5080453;28;20029;-68
2021/05/02 00:48:46;;;;;;;24.58;15.50;;;7.60;83.60;;;;;;5086542;28;20031;-68
2021/05/02 00:51:15;;;;;;;25.70;15.63;;;7.60;83.30;;;;;;5089513;28;20024;-68
2021/05/02 00:53:53;;;;;;;21.55;13.85;;;7.60;83.50;;;;;;5087036;28;20039;-68
2021/05/02 00:57:14;;;;;;;23.52;14.70;;;7.60;83.40;;;;;;5071984;28;20027;-68
2021/05/02 01:00:05;;;;;;;21.70;14.10;;;7.60;83.70;;;;;;5037554;28;20504;-68
2021/05/02 01:02:33;;;;;;;24.42;15.38;;;7.60;83.40;;;;;;5085383;28;20055;-68
2021/05/02 01:05:03;;;;;;;25.23;15.65;;;7.50;83.30;;;;;;5085415;28;20146;-68
2021/05/02 01:07:35;;;;;;;29.67;17.25;;;7.50;83.40;;;;;;5087984;28;20054;-68
2021/05/02 01:10:11;;;;;;;28.48;17.60;;;7.50;83.70;;;;;;5085340;28;20403;-68
2021/05/02 01:12:49;;;;;;;26.88;16.92;;;7.50;83.70;;;;;;5070872;28;20033;-68
2021/05/02 01:15:25;;;;;;;30.13;17.65;;;7.50;83.70;;;;;;5088344;28;20588;-68
2021/05/02 01:18:00;;;;;;;30.02;17.15;;;7.50;83.70;;;;;;5084882;28;20070;-68
2021/05/02 01:20:30;;;;;;;28.02;16.75;;;7.60;83.80;;;;;;5092006;28;20027;-68
2021/05/02 01:22:59;;;;;;;26.48;16.33;;;7.50;83.40;;;;;;5088310;28;20024;-68
2021/05/02 01:25:25;;;;;;;26.90;16.27;;;7.50;83.60;;;;;;5085430;28;20072;-68
2021/05/02 01:27:56;;;;;;;25.48;15.70;;;7.50;83.70;;;;;;5085231;28;20372;-68
2021/05/02 01:30:23;;;;;;;30.35;16.63;;;7.50;83.70;;;;;;5087402;28;20024;-68
2021/05/02 01:32:49;;;;;;;27.95;16.42;;;7.50;84.20;;;;;;5089126;28;20111;-68
2021/05/02 01:35:15;;;;;;;25.02;15.82;;;7.40;83.70;;;;;;5086695;28;20091;-69
2021/05/02 01:37:41;;;;;;;23.95;15.30;;;7.50;83.90;;;;;;5089357;28;20035;-68
2021/05/02 01:40:07;;;;;;;21.73;14.75;;;7.40;83.80;;;;;;5089136;28;20543;-68
2021/05/02 01:42:34;;;;;;;25.85;16.30;;;7.40;83.90;;;;;;5086608;28;20114;-68
2021/05/02 01:44:59;;;;;;;23.17;15.40;;;7.40;83.90;;;;;;5087868;28;20028;-68
2021/05/02 01:47:26;;;;;;;24.83;15.85;;;7.40;83.80;;;;;;5089192;28;20035;-68
2021/05/02 01:50:02;;;;;;;29.40;17.08;;;7.40;83.90;;;;;;5093915;28;20043;-68
2021/05/02 01:52:32;;;;;;;27.33;17.27;;;7.40;84.10;;;;;;5073847;28;20032;-68
2021/05/02 01:54:59;;;;;;;28.90;17.25;;;7.30;83.80;;;;;;5089911;28;20395;-68
2021/05/02 01:57:30;;;;;;;28.48;18.55;;;7.30;83.90;;;;;;5089963;28;20499;-68
2021/05/02 02:00:05;;;;;;;32.65;18.90;;;7.30;84.00;;;;;;5092180;28;20035;-68
2021/05/02 02:02:32;;;;;;;28.75;18.08;;;7.30;84.00;;;;;;5091011;28;20032;-68
2021/05/02 02:04:58;;;;;;;29.42;18.40;;;7.30;84.00;;;;;;5090506;28;20039;-68
2021/05/02 02:07:24;;;;;;;32.33;18.83;;;7.20;83.90;;;;;;5090312;28;20633;-68
2021/05/02 02:09:53;;;;;;;31.52;19.65;;;7.20;84.00;;;;;;5085939;28;20095;-68
2021/05/02 02:12:19;;;;;;;37.10;19.92;;;7.20;84.00;;;;;;5086480;28;20456;-68
2021/05/02 02:14:48;;;;;;;33.20;20.23;;;7.20;84.00;;;;;;5084978;28;20043;-68
2021/05/02 02:17:16;;;;;;;34.28;20.48;;;7.20;84.20;;;;;;5086401;28;20529;-69
2021/05/02 02:19:41;;;;;;;37.65;21.52;;;7.20;84.20;;;;;;5091628;28;20399;-68
2021/05/02 02:22:07;;;;;;;37.63;21.27;;;7.20;84.30;;;;;;5091179;28;20028;-68
2021/05/02 02:24:42;;;;;;;36.97;20.90;;;7.20;84.30;;;;;;5086883;28;20020;-68
2021/05/02 02:27:09;;;;;;;36.78;21.42;;;7.20;84.40;;;;;;5091943;28;20107;-69
2021/05/02 02:29:39;;;;;;;38.53;21.40;;;7.10;84.20;;;;;;5092048;28;20042;-69
2021/05/02 02:32:08;;;;;;;42.72;22.25;;;7.10;84.30;;;;;;5092512;28;20020;-68
2021/05/02 02:37:02;;;;;;;36.33;21.58;;;7.10;84.30;;;;;;4998981;28;20058;-69
2021/05/02 02:39:29;;;;;;;40.08;21.80;;;7.10;84.30;;;;;;5020598;28;20104;-69
2021/05/02 02:41:58;;;;;;;42.53;22.95;;;7.10;84.40;;;;;;5024771;28;20028;-69
2021/05/02 02:44:27;;;;;;;40.00;22.80;;;7.10;84.50;;;;;;5019585;28;20503;-69
2021/05/02 02:46:57;;;;;;;42.83;23.95;;;7.10;84.50;;;;;;5019298;28;20113;-69
2021/05/02 02:49:25;;;;;;;46.85;25.90;;;7.00;84.30;;;;;;5026636;28;20049;-68
2021/05/02 02:51:54;;;;;;;42.05;24.55;;;7.00;84.40;;;;;;5027963;28;20021;-69
2021/05/02 02:54:22;;;;;;;40.45;24.42;;;7.00;84.30;;;;;;5031209;28;20112;-69
2021/05/02 02:56:53;;;;;;;45.58;25.92;;;6.90;84.30;;;;;;5026577;28;20029;-69
2021/05/02 02:59:23;;;;;;;43.95;26.02;;;6.90;84.50;;;;;;5026043;28;20049;-69
2021/05/02 03:01:49;;;;;;;40.53;25.00;;;6.90;84.30;;;;;;5023468;28;20036;-69
2021/05/02 03:04:18;;;;;;;40.03;23.67;;;6.80;84.30;;;;;;5028039;28;20025;-69
2021/05/02 03:06:45;;;;;;;41.00;24.65;;;6.80;84.40;;;;;;5026000;28;20034;-69
2021/05/02 03:09:14;;;;;;;36.00;24.65;;;6.70;84.30;;;;;;5024509;28;20105;-68
2021/05/02 03:11:40;;;;;;;38.25;25.05;;;6.70;84.20;;;;;;5019304;28;20029;-69
2021/05/02 03:14:06;;;;;;;39.08;23.85;;;6.70;84.20;;;;;;5024467;28;20060;-68
2021/05/02 03:16:35;;;;;;;38.72;23.17;;;6.60;84.20;;;;;;5021905;28;21661;-70
2021/05/02 03:19:25;;;;;;;41.17;24.50;;;6.60;84.30;;;;;;5027205;28;20040;-69
2021/05/02 03:22:15;;;;;;;40.65;23.42;;;6.60;84.50;;;;;;5015147;28;20137;-69
2021/05/02 03:24:45;;;;;;;37.50;23.67;;;6.60;84.40;;;;;;5027794;28;20036;-68
2021/05/02 03:27:18;;;;;;;38.85;23.35;;;6.50;84.20;;;;;;5026785;28;20076;-69
2021/05/02 03:29:50;;;;;;;35.03;23.00;;;6.50;84.20;;;;;;5030401;28;20049;-69
2021/05/02 03:32:19;;;;;;;38.25;24.30;;;6.50;84.30;;;;;;5018925;28;20120;-69
2021/05/02 03:34:46;;;;;;;40.60;24.45;;;6.50;84.20;;;;;;5022112;28;20046;-69
2021/05/02 03:37:17;;;;;;;38.75;24.17;;;6.50;84.30;;;;;;5021630;28;20036;-69
2021/05/02 03:39:48;;;;;;;38.90;23.95;;;6.50;84.40;;;;;;5031448;28;20029;-69
2021/05/02 03:42:14;;;;;;;36.78;23.40;;;6.50;84.50;;;;;;5031288;28;20021;-69
2021/05/02 03:44:40;;;;;;;40.08;25.10;;;6.50;84.40;;;;;;5027263;28;20544;-69
2021/05/02 03:47:05;;;;;;;36.47;23.27;;;6.50;84.40;;;;;;5029261;28;20152;-69
2021/05/02 03:49:31;;;;;;;37.97;23.85;;;6.50;84.50;;;;;;5018640;28;20034;-69
2021/05/02 03:51:58;;;;;;;39.22;24.35;;;6.50;84.60;;;;;;5020106;28;20045;-68
2021/05/02 03:54:23;;;;;;;44.25;24.60;;;6.50;84.60;;;;;;5019912;28;20104;-69
2021/05/02 03:56:49;;;;;;;40.28;24.17;;;6.50;84.60;;;;;;5027268;28;20060;-69
2021/05/02 03:59:17;;;;;;;36.72;23.73;;;6.60;84.60;;;;;;5029051;28;20481;-69
2021/05/02 04:01:56;;;;;;;39.25;25.00;;;6.60;84.60;;;;;;5031540;28;20034;-69
2021/05/02 04:04:30;;;;;;;35.50;22.90;;;6.60;84.60;;;;;;5019461;28;20063;-69
2021/05/02 04:07:00;;;;;;;36.42;22.48;;;6.60;84.50;;;;;;5022206;28;20601;-68
2021/05/02 04:09:26;;;;;;;38.40;23.92;;;6.60;84.50;;;;;;5028052;28;20061;-69
2021/05/02 04:11:52;;;;;;;41.28;25.35;;;6.60;84.50;;;;;;5024718;28;20022;-68
2021/05/02 04:14:18;;;;;;;38.13;24.98;;;6.60;84.50;;;;;;5013965;28;20497;-69
2021/05/02 04:16:53;;;;;;;38.92;24.73;;;6.60;84.50;;;;;;5023664;28;20021;-68
2021/05/02 04:19:19;;;;;;;40.40;24.52;;;6.60;84.50;;;;;;5028019;28;20052;-68
2021/05/02 04:21:44;;;;;;;38.38;24.60;;;6.60;84.50;;;;;;5014927;28;20029;-69
2021/05/02 04:24:10;;;;;;;39.28;23.75;;;6.60;84.60;;;;;;5028307;28;20048;-69
2021/05/02 04:26:36;;;;;;;38.40;24.88;;;6.60;84.50;;;;;;5026216;28;20030;-69
2021/05/02 04:29:01;;;;;;;39.95;24.67;;;6.60;84.60;;;;;;5025672;28;20045;-69
2021/05/02 04:31:27;;;;;;;38.80;23.75;;;6.60;84.60;;;;;;5019223;28;20548;-68
2021/05/02 04:33:53;;;;;;;37.50;23.60;;;6.70;84.60;;;;;;5024766;28;20029;-69
2021/05/02 04:36:18;;;;;;;37.40;23.83;;;6.70;84.50;;;;;;5020533;28;20044;-69
2021/05/02 04:38:44;;;;;;;36.50;24.13;;;6.70;84.60;;;;;;5027848;28;20497;-69
2021/05/02 04:41:10;;;;;;;40.03;24.30;;;6.70;84.40;;;;;;5028666;28;20428;-68
2021/05/02 04:43:35;;;;;;;30.88;22.08;;;6.70;84.50;;;;;;5026998;28;20450;-69
2021/05/02 04:46:01;;;;;;;34.47;22.58;;;6.70;84.30;;;;;;5027630;28;20030;-69
2021/05/02 04:48:27;;;;;;;36.08;22.45;;;6.60;84.30;;;;;;5023668;28;20608;-69
2021/05/02 04:50:52;;;;;;;32.40;22.73;;;6.60;84.30;;;;;;5022624;28;20029;-69
2021/05/02 04:53:19;;;;;;;35.17;22.80;;;6.60;84.40;;;;;;5023035;28;20385;-69
2021/05/02 04:55:45;;;;;;;33.70;22.60;;;6.60;84.30;;;;;;5017313;28;20172;-69
2021/05/02 04:58:11;;;;;;;30.05;21.17;;;6.60;84.20;;;;;;5028502;28;20449;-69
2021/05/02 05:00:37;;;;;;;34.67;21.77;;;6.60;84.20;;;;;;5029176;28;20075;-69
2021/05/02 05:03:02;;;;;;;32.22;21.65;;;6.60;84.30;;;;;;5027982;28;20033;-69
2021/05/02 05:05:29;;;;;;;30.30;20.35;;;6.60;84.40;;;;;;5027811;28;20022;-68
2021/05/02 05:07:54;;;;;;;31.85;21.58;;;6.60;84.20;;;;;;5027195;28;20040;-69
2021/05/02 05:10:20;;;;;;;32.08;21.80;;;6.60;84.20;;;;;;5027033;28;20030;-68
2021/05/02 05:12:46;;;;;;;31.00;22.42;;;6.60;84.30;;;;;;5021473;28;20288;-68
2021/05/02 05:15:12;;;;;;;30.52;21.45;;;6.60;84.30;;;;;;5023998;28;20101;-68
2021/05/02 05:17:37;;;;;;;33.72;22.10;;;6.60;84.20;;;;;;5018283;28;20033;-68
2021/05/02 05:20:04;;;;;;;36.60;22.67;;;6.70;84.40;;;;;;5019227;28;20037;-67
2021/05/02 05:22:30;;;;;;;33.47;21.98;;;6.70;84.30;;;;;;5023482;28;20374;-68
2021/05/02 05:24:56;;;;;;;33.22;21.92;;;6.70;84.30;;;;;;5034116;28;20029;-69
2021/05/02 05:27:21;;;;;;;32.75;21.40;;;6.70;84.30;;;;;;5029636;28;20039;-68
2021/05/02 05:29:47;;;;;;;31.45;22.33;;;6.80;84.30;;;;;;5027949;28;20034;-68
2021/05/02 05:32:12;;;;;;;34.85;21.88;;;6.80;84.10;;;;;;5030431;28;20087;-68
2021/05/02 05:34:38;;;;;;;34.25;21.70;;;6.70;83.90;;;;;;5026136;28;20635;-68
2021/05/02 05:37:04;;;;;;;31.00;21.73;;;6.70;83.90;;;;;;5028529;28;20080;-68
2021/05/02 05:39:29;;;;;;;36.47;23.40;;;6.70;84.10;;;;;;5016395;28;20030;-68
2021/05/02 05:41:55;;;;;;;35.60;23.52;;;6.70;84.00;;;;;;5031062;28;20052;-68
2021/05/02 05:44:20;;;;;;;34.28;21.63;;;6.70;83.90;;;;;;5032269;28;20025;-68
2021/05/02 05:46:46;;;;;;;32.50;21.60;;;6.70;83.80;;;;;;5023276;28;20715;-68
2021/05/02 05:49:13;;;;;;;34.05;23.08;;;6.60;83.80;;;;;;5018742;28;20029;-68
2021/05/02 05:51:38;;;;;;;34.17;23.05;;;6.60;83.90;;;;;;5027133;28;20018;-68
2021/05/02 05:54:04;;;;;;;34.05;22.95;;;6.60;84.20;;;;;;5030837;28;20497;-68
2021/05/02 05:56:30;;;;;;;41.08;24.13;;;6.70;84.20;;;;;;5026591;28;20508;-68
2021/05/02 05:58:55;;;;;;;34.67;22.92;;;6.70;84.30;;;;;;5023597;28;20062;-68
2021/05/02 06:01:21;;;;;;;36.55;24.15;;;6.80;84.20;;;;;;5021235;28;20041;-68
2021/05/02 06:03:46;;;;;;;35.70;23.40;;;6.80;84.20;;;;;;5029821;28;20177;-68
2021/05/02 06:06:12;;;;;;;33.55;22.35;;;6.90;84.10;;;;;;5028430;28;20041;-68
2021/05/02 06:08:38;;;;;;;33.45;21.85;;;6.90;84.00;;;;;;5032133;28;20018;-68
2021/05/02 06:11:03;;;;;;;37.63;21.58;;;6.90;84.00;;;;;;5030357;28;20478;-69
2021/05/02 06:13:29;;;;;;;32.90;21.33;;;7.00;84.10;;;;;;5025743;28;20030;-68
2021/05/02 06:15:55;;;;;;;31.23;20.40;;;7.00;84.10;;;;;;5021579;28;20055;-68
2021/05/02 06:18:20;;;;;;;30.17;20.42;;;7.10;84.20;;;;;;5020942;28;20044;-68
2021/05/02 06:20:46;;;;;;;30.23;21.42;;;7.10;84.10;;;;;;5026261;28;20037;-68
2021/05/02 06:23:12;;;;;;;29.80;19.80;;;7.20;84.20;;;;;;5030796;28;20080;-68
2021/05/02 06:25:37;;;;;;;30.52;19.98;;;7.20;83.90;;;;;;5027377;28;20026;-68
2021/05/02 06:28:03;;;;;;;27.85;19.10;;;7.30;84.00;;;;;;5027380;28;20056;-68
2021/05/02 06:30:29;;;;;;;30.05;20.10;;;7.40;84.10;;;;;;5030858;28;20053;-68
2021/05/02 06:32:54;;;;;;;25.63;18.73;;;7.40;84.10;;;;;;5030590;28;20045;-69
2021/05/02 06:35:20;;;;;;;26.00;18.65;;;7.40;83.80;;;;;;5042314;28;20033;-69
2021/05/02 06:37:46;;;;;;;24.50;17.30;;;7.50;83.60;;;;;;5018924;28;20553;-68
2021/05/02 06:40:12;;;;;;;25.13;18.17;;;7.50;83.50;;;;;;5022578;28;20034;-69
2021/05/02 06:42:37;;;;;;;24.50;17.65;;;7.50;83.30;;;;;;5029299;28;20089;-69
2021/05/02 06:45:04;;;;;;;24.00;17.60;;;7.70;83.60;;;;;;5017849;28;20124;-68
2021/05/02 06:47:30;;;;;;;22.85;16.95;;;7.80;83.50;;;;;;5026054;28;20519;-69
2021/05/02 06:49:55;;;;;;;25.48;17.92;;;7.90;83.40;;;;;;5026739;28;20112;-69
2021/05/02 06:52:22;;;;;;;25.00;17.33;;;8.10;83.30;;;;;;5023630;28;20412;-69
2021/05/02 06:54:47;;;;;;;26.83;17.98;;;8.20;83.20;;;;;;5030075;28;20026;-69
2021/05/02 06:57:13;;;;;;;26.50;17.92;;;8.40;83.20;;;;;;5030206;28;20087;-69
2021/05/02 06:59:39;;;;;;;22.20;15.85;;;8.60;83.10;;;;;;5027559;28;20029;-69
2021/05/02 07:02:04;;;;;;;21.30;15.25;;;8.70;82.50;;;;;;5033097;28;20489;-69
2021/05/02 07:04:34;;;;;;;21.20;15.73;;;8.60;81.80;;;;;;5033807;28;20444;-69
2021/05/02 07:07:01;;;;;;;21.48;15.18;;;8.50;81.50;;;;;;5029875;28;20118;-68
2021/05/02 07:09:27;;;;;;;19.90;14.50;;;8.40;81.30;;;;;;5022237;28;20026;-68
2021/05/02 07:11:53;;;;;;;19.85;14.40;;;8.30;81.30;;;;;;5031326;28;20389;-68
2021/05/02 07:14:18;;;;;;;18.67;14.10;;;8.30;81.30;;;;;;5028292;28;20504;-67
2021/05/02 07:16:44;;;;;;;20.92;15.25;;;8.30;81.30;;;;;;5015226;28;20069;-67
2021/05/02 07:19:10;;;;;;;23.90;14.93;;;8.30;81.40;;;;;;5019328;28;20052;-68
2021/05/02 07:21:35;;;;;;;20.30;15.15;;;8.40;81.40;;;;;;5031527;28;20029;-68
2021/05/02 07:24:01;;;;;;;19.92;14.75;;;8.60;81.30;;;;;;5037153;28;20033;-68
2021/05/02 07:26:26;;;;;;;18.95;14.77;;;8.60;81.50;;;;;;5031458;28;20060;-68
2021/05/02 07:28:52;;;;;;;22.08;15.13;;;8.60;81.20;;;;;;5028085;28;20398;-68
2021/05/02 07:31:18;;;;;;;20.88;14.70;;;8.70;81.20;;;;;;5026576;28;20021;-68
2021/05/02 07:33:44;;;;;;;18.65;14.35;;;8.70;80.60;;;;;;5030140;28;20044;-68
2021/05/02 07:36:13;;;;;;;18.67;14.40;;;8.70;80.50;;;;;;5016487;28;20030;-68
2021/05/02 07:38:38;;;;;;;22.92;16.05;;;8.80;80.30;;;;;;5023997;28;20036;-68
2021/05/02 07:41:04;;;;;;;23.40;16.02;;;8.90;80.20;;;;;;5028641;28;20481;-68
2021/05/02 07:43:32;;;;;;;22.15;16.23;;;9.00;80.20;;;;;;5030989;28;20025;-68
2021/05/02 07:45:58;;;;;;;22.05;16.13;;;9.10;80.20;;;;;;5021132;28;20041;-68
2021/05/02 07:48:24;;;;;;;21.88;16.08;;;9.10;80.30;;;;;;5013611;28;20426;-68
2021/05/02 07:50:49;;;;;;;22.73;16.35;;;9.20;80.30;;;;;;5029470;28;20021;-68
2021/05/02 07:53:17;;;;;;;20.50;15.50;;;9.20;80.50;;;;;;5034298;28;20498;-68
2021/05/02 07:55:43;;;;;;;21.13;14.93;;;9.30;80.40;;;;;;5028546;28;20022;-68
2021/05/02 07:58:08;;;;;;;20.23;14.15;;;9.30;80.40;;;;;;5026160;28;20513;-68
2021/05/02 08:00:34;;;;;;;20.75;15.25;;;9.40;80.00;;;;;;5030137;28;20459;-68
2021/05/02 08:03:00;;;;;;;21.42;14.65;;;9.30;79.70;;;;;;5030186;28;20029;-69
2021/05/02 08:05:25;;;;;;;19.50;14.30;;;9.30;79.70;;;;;;5022535;28;20018;-68
2021/05/02 08:07:51;;;;;;;18.15;13.63;;;9.40;79.50;;;;;;5024405;28;20120;-69
2021/05/02 08:10:18;;;;;;;18.02;13.65;;;9.40;79.40;;;;;;5019555;28;20022;-69
2021/05/02 08:12:44;;;;;;;16.20;13.23;;;9.40;79.10;;;;;;5024598;28;20037;-69
2021/05/02 08:15:09;;;;;;;16.40;13.07;;;9.40;79.00;;;;;;5016846;28;20022;-70
2021/05/02 08:17:36;;;;;;;18.58;13.68;;;9.50;79.00;;;;;;5033231;28;20120;-68
2021/05/02 08:20:04;;;;;;;20.10;14.25;;;9.60;78.20;;;;;;5031837;28;20557;-69
2021/05/02 08:22:30;;;;;;;15.77;12.65;;;9.60;77.90;;;;;;5023390;28;20052;-68
2021/05/02 08:24:55;;;;;;;14.95;12.38;;;10.00;77.50;;;;;;5031372;28;20512;-69
2021/05/02 08:27:21;;;;;;;15.30;12.60;;;10.40;77.30;;;;;;5025025;28;20385;-69
2021/05/02 08:29:46;;;;;;;15.45;12.73;;;11.00;76.20;;;;;;5027135;28;20056;-73
2021/05/02 08:32:12;;;;;;;18.33;12.90;;;11.30;75.80;;;;;;5030146;28;20032;-69
2021/05/02 08:34:38;;;;;;;17.33;13.25;;;11.50;74.70;;;;;;5030388;28;20017;-68
2021/05/02 08:37:06;;;;;;;17.50;13.90;;;11.60;74.80;;;;;;5120568;22;20044;-84
2021/05/02 08:39:32;;;;;;;17.73;13.20;;;11.40;75.20;;;;;;5073896;28;20505;-86
2021/05/02 08:41:58;;;;;;;17.65;14.10;;;11.80;74.30;;;;;;5098372;28;20088;-83
2021/05/02 08:44:24;;;;;;;17.42;12.45;;;11.90;74.50;;;;;;5073487;28;20048;-87
2021/05/02 08:46:51;;;;;;;19.23;12.95;;;12.70;72.20;;;;;;5081103;28;20531;-83
2021/05/02 08:49:18;;;;;;;17.65;12.52;;;12.50;73.30;;;;;;5074957;28;20027;-87
2021/05/02 08:51:45;;;;;;;19.67;14.27;;;12.00;74.20;;;;;;5085812;28;20032;-85
2021/05/02 08:54:22;;;;;;;20.02;13.98;;;11.70;74.80;;;;;;5093624;28;20123;-85
2021/05/02 08:56:57;;;;;;;17.83;13.35;;;11.30;75.50;;;;;;5094238;28;20012;-84
2021/05/02 08:59:23;;;;;;;18.25;12.68;;;11.80;74.80;;;;;;5074449;28;20078;-85
2021/05/02 09:01:48;;;;;;;16.25;12.25;;;13.00;72.00;;;;;;5082618;28;20028;-85
2021/05/02 09:04:15;;;;;;;15.15;12.50;;;14.10;69.70;;;;;;5073688;28;20040;-83
2021/05/02 09:07:19;;;;;;;20.58;13.02;;;13.90;69.30;;;;;;5080340;28;20047;-85
2021/05/02 09:10:18;;;;;;;18.15;14.20;;;12.90;70.70;;;;;;5075459;28;20040;-85
2021/05/02 09:12:59;;;;;;;18.73;13.70;;;12.10;72.60;;;;;;5019221;28;20096;-87
2021/05/02 09:15:24;;;;;;;20.98;14.38;;;11.80;73.20;;;;;;5093946;28;20036;-83
2021/05/02 09:18:17;;;;;;;16.98;13.82;;;11.40;74.00;;;;;;5077478;28;20028;-86
2021/05/02 09:20:45;;;;;;;17.70;12.98;;;12.00;73.50;;;;;;5080143;28;20024;-84
2021/05/02 09:23:13;;;;;;;14.88;12.30;;;12.30;73.10;;;;;;5071003;28;20059;-85
2021/05/02 09:25:47;;;;;;;16.48;12.77;;;12.10;73.20;;;;;;5083270;28;20027;-86
2021/05/02 09:28:13;;;;;;;16.75;13.40;;;11.90;73.10;;;;;;5078130;28;20036;-84
2021/05/02 09:30:39;;;;;;;18.00;13.82;;;11.70;73.90;;;;;;5078461;28;20499;-83
2021/05/02 09:33:05;;;;;;;21.45;14.30;;;11.50;74.40;;;;;;5073821;28;21585;-83
2021/05/02 09:35:32;;;;;;;18.52;14.00;;;11.30;73.70;;;;;;5078257;28;20048;-84
2021/05/02 09:38:15;;;;;;;19.48;13.70;;;11.10;73.80;;;;;;5067688;28;20029;-85
2021/05/02 09:40:49;;;;;;;18.45;13.95;;;11.00;73.60;;;;;;5086991;28;20032;-83
2021/05/02 09:43:35;;;;;;;18.67;13.95;;;11.00;73.70;;;;;;5069448;28;20074;-84
2021/05/02 09:46:25;;;;;;;16.10;12.45;;;11.30;74.00;;;;;;5091199;28;20028;-86
2021/05/02 09:48:53;;;;;;;16.67;12.13;;;12.00;73.60;;;;;;5106139;28;20032;-85
2021/05/02 09:51:23;;;;;;;14.45;11.25;;;12.00;73.80;;;;;;5090717;28;20093;-85
2021/05/02 09:54:08;;;;;;;15.15;11.60;;;12.20;72.70;;;;;;5072658;28;20727;-84
2021/05/02 09:56:49;;;;;;;14.88;12.13;;;12.30;72.30;;;;;;5079862;28;20111;-84
2021/05/02 09:59:27;;;;;;;17.67;13.00;;;12.30;72.10;;;;;;5077610;28;20024;-85
2021/05/02 10:02:11;;;;;;;20.02;12.93;;;12.10;72.10;;;;;;5081902;28;20055;-85
2021/05/02 10:04:45;;;;;;;18.15;13.65;;;11.90;71.10;;;;;;5063998;28;20123;-84
2021/05/02 10:07:15;;;;;;;15.98;12.70;;;11.50;71.50;;;;;;5078607;28;20035;-84
2021/05/02 10:09:41;;;;;;;19.38;13.68;;;11.30;72.30;;;;;;5096181;28;20028;-83
2021/05/02 10:12:12;;;;;;;19.33;13.18;;;11.20;72.60;;;;;;5078587;28;20103;-85
2021/05/02 10:14:38;;;;;;;19.83;12.30;;;11.10;72.20;;;;;;5090806;28;20019;-85
2021/05/02 10:17:05;;;;;;;15.80;13.25;;;10.90;71.70;;;;;;5069046;28;20028;-84
2021/05/02 10:19:31;;;;;;;18.60;13.55;;;10.70;71.50;;;;;;5097844;28;20032;-83
2021/05/02 10:21:57;;;;;;;17.90;13.85;;;10.60;71.90;;;;;;5076767;28;20451;-85
2021/05/02 10:24:23;;;;;;;17.88;13.35;;;10.50;71.70;;;;;;5077615;28;20034;-84
2021/05/02 10:26:53;;;;;;;18.33;13.43;;;10.50;72.10;;;;;;5076381;28;20488;-83
2021/05/02 10:29:30;;;;;;;16.58;12.15;;;10.80;72.20;;;;;;5073523;28;20402;-85
2021/05/02 10:32:01;;;;;;;13.95;11.63;;;11.00;71.50;;;;;;5085652;28;20028;-83
2021/05/02 10:34:36;;;;;;;16.42;12.73;;;11.30;71.60;;;;;;5085737;28;20031;-84
2021/05/02 10:37:24;;;;;;;14.15;11.52;;;11.40;71.60;;;;;;5098138;28;20052;-81
2021/05/02 10:40:07;;;;;;;15.75;11.73;;;11.40;71.00;;;;;;5103808;28;20019;-83
2021/05/02 10:42:53;;;;;;;16.70;11.65;;;11.40;70.60;;;;;;5110375;28;20031;-87
2021/05/02 10:45:28;;;;;;;16.58;11.27;;;11.30;70.10;;;;;;5076359;28;20419;-85
2021/05/02 10:47:54;;;;;;;16.10;11.57;;;11.10;70.50;;;;;;5071267;28;20036;-84
2021/05/02 10:50:36;;;;;;;15.70;12.32;;;11.00;70.90;;;;;;5080280;28;20028;-83
2021/05/02 10:53:03;;;;;;;17.27;12.93;;;10.90;70.60;;;;;;5072495;28;20054;-85
2021/05/02 10:55:52;;;;;;;19.83;13.38;;;10.80;71.00;;;;;;5096078;28;20114;-85
2021/05/02 10:58:23;;;;;;;17.17;11.57;;;10.90;70.70;;;;;;5067743;28;20028;-84
2021/05/02 11:00:53;;;;;;;17.75;12.35;;;10.90;71.00;;;;;;5076688;28;20034;-82
2021/05/02 11:06:11;;;;;;;16.30;12.38;;;11.00;71.00;;;;;;5081565;28;20511;-84
2021/05/02 11:08:51;;;;;;;15.02;12.18;;;11.20;71.00;;;;;;5072371;28;20028;-84
2021/05/02 11:11:32;;;;;;;18.13;12.95;;;11.30;70.60;;;;;;5076713;28;20081;-85
2021/05/02 11:16:33;;;;;;;16.15;12.07;;;11.70;70.80;;;;;;5094783;28;20039;-85
2021/05/02 11:18:59;;;;;;;16.90;12.40;;;11.90;71.00;;;;;;5074365;28;20032;-86
2021/05/02 11:21:25;;;;;;;13.90;11.25;;;12.00;70.80;;;;;;5077613;28;20484;-85
2021/05/02 11:24:00;;;;;;;14.02;10.98;;;12.00;70.40;;;;;;5077098;28;20380;-87
2021/05/02 11:29:21;;;;;;;13.82;10.63;;;11.70;69.00;;;;;;5091091;28;20024;-86
2021/05/02 11:31:47;;;;;;;15.63;12.18;;;11.60;70.00;;;;;;5075718;28;20111;-83
2021/05/02 11:34:13;;;;;;;15.20;11.95;;;11.50;70.20;;;;;;5075631;28;20177;-85
2021/05/02 11:36:40;;;;;;;16.40;11.98;;;11.50;70.80;;;;;;5089891;28;20040;-82
2021/05/02 11:39:07;;;;;;;14.82;12.02;;;11.50;69.80;;;;;;5092599;28;20058;-86
2021/05/02 11:42:05;;;;;;;15.05;12.40;;;11.60;69.90;;;;;;5073255;28;20065;-87
2021/05/02 11:44:35;;;;;;;16.17;11.75;;;11.70;69.30;;;;;;5097650;28;20135;-83
2021/05/02 11:47:11;;;;;;;18.40;12.95;;;11.80;69.40;;;;;;5080330;28;20028;-87
2021/05/02 11:49:38;;;;;;;17.85;13.13;;;11.70;68.70;;;;;;5077433;28;20081;-87
2021/05/02 11:52:05;;;;;;;16.05;11.93;;;11.90;69.00;;;;;;5094420;28;20024;-86
2021/05/02 11:54:33;;;;;;;14.32;11.95;;;12.10;69.00;;;;;;5077466;28;20051;-86
2021/05/02 11:56:59;;;;;;;15.32;11.85;;;12.30;69.10;;;;;;5077318;28;20119;-87
2021/05/02 11:59:25;;;;;;;15.57;12.27;;;12.40;69.30;;;;;;5078064;28;20028;-87
2021/05/02 12:01:51;;;;;;;15.80;11.75;;;12.50;68.70;;;;;;5073507;28;20028;-84
2021/05/02 12:04:19;;;;;;;17.40;12.05;;;12.40;67.90;;;;;;5095031;28;20089;-86
2021/05/02 12:06:47;;;;;;;13.55;11.15;;;12.40;67.60;;;;;;5062922;28;20115;-86
2021/05/02 12:09:20;;;;;;;16.58;12.00;;;12.40;67.50;;;;;;5059644;28;20027;-86
2021/05/02 12:11:53;;;;;;;14.35;11.00;;;12.40;67.10;;;;;;5072671;28;20028;-84
2021/05/02 12:14:22;;;;;;;14.25;10.48;;;12.50;67.10;;;;;;5082929;28;20028;-87
2021/05/02 12:16:55;;;;;;;12.15;10.02;;;12.60;67.30;;;;;;5074058;28;20035;-88
2021/05/02 12:19:21;;;;;;;15.25;10.55;;;12.60;66.40;;;;;;5076786;28;20027;-86
2021/05/02 12:21:48;;;;;;;16.15;12.50;;;12.80;67.10;;;;;;5093143;28;20039;-88
2021/05/02 12:24:25;;;;;;;17.45;12.73;;;13.00;66.90;;;;;;5075530;28;20048;-88
2021/05/02 12:26:58;;;;;;;15.50;12.15;;;13.00;66.20;;;;;;5075786;28;20089;-86
2021/05/02 12:29:37;;;;;;;13.25;11.55;;;13.00;65.60;;;;;;5073833;28;20027;-87
2021/05/02 12:32:11;;;;;;;13.85;11.30;;;13.00;66.00;;;;;;5092515;28;20020;-85
2021/05/02 12:34:48;;;;;;;14.85;10.45;;;13.30;66.70;;;;;;5067856;28;20539;-84
2021/05/02 12:37:18;;;;;;;14.52;10.68;;;13.50;65.60;;;;;;5087686;28;20043;-85
2021/05/02 12:39:49;;;;;;;12.02;9.13;;;13.60;65.60;;;;;;5074633;28;20052;-87
2021/05/02 12:42:15;;;;;;;9.88;8.40;;;13.80;65.30;;;;;;5083601;28;20066;-84
2021/05/02 12:44:50;;;;;;;9.23;8.18;;;14.00;65.40;;;;;;5074977;28;20136;-85
2021/05/02 12:50:39;;;;;;;13.02;8.82;;;14.30;64.30;;;;;;4979128;28;20046;-86
2021/05/02 12:53:04;;;;;;;11.68;8.52;;;14.50;64.20;;;;;;4976621;28;20025;-86
2021/05/02 12:55:31;;;;;;;10.48;8.88;;;14.50;64.00;;;;;;5044573;28;20040;-86
2021/05/02 12:57:58;;;;;;;12.05;8.50;;;14.40;63.50;;;;;;5078517;28;20399;-83